Historique des mesures à Cassis (13260), France
Quotidien Résumé Fevrier 13, 2018 Unités:  Métrique/US    US   Métrique
« Précédent (Jour)
Suivant (Jour) »
Quotidien Hebdomadaire Mensuel Annuel Période au choix
  Maximum: Minimum: Moyenne:
Température: 32 °F /  TemperatureC °C 37.6 °F /  3.1 °C 42.3 °F /  5.7 °C
Point de rosée: 32 °F /  DewpointC °C 18 °F /  -7.8 °C 22.6 °F /  -5.2 °C
Humidité: Humidity % 35 % 42 %
Vitesse du vent: WindSpeedKMH mph /  0 km/h - 5.3 mph /  8.5 km/h
Rafales: WindSpeedGustKMH mph /  0 km/h - -
Vent:- - WSW
Pression: 0 in /  PressurehPa hPa 29.8 in /  1007.7 hPa -
Précipitations: 0 in /  0.0 mm    
Historical Graphs
 
 
Mesures pour : Fevrier 13, 2018
Heure Temperature Point de rosée Pression Vent Vitesse du vent Rafales Humidité Pluie (par heure) Conditions
32 °F /  TemperatureC °C 32 °F /  DewpointC °C 0 in /  PressurehPa hPa Calm     Humidity % 0 in /  HourlyPrecipMM mm SoftwareType W/m2
00:12 39.9 °F /  4.4 °C 23.2 °F /  -4.9 °C 29.8 in /  1009.7 hPa NW 15.8 mph /  25.4 km/h 15.8 mph /  25.4 km/h 51 % 0 in /  0.0 mm open2300-1.11 W/m2
01:12 39.4 °F /  4.1 °C 23.2 °F /  -4.9 °C 29.8 in /  1009.7 hPa WNW 15.8 mph /  25.4 km/h 18.3 mph /  29.5 km/h 52 % 0 in /  0.0 mm open2300-1.11 W/m2
02:12 37.9 °F /  3.3 °C 22.6 °F /  -5.2 °C 29.8 in /  1010.0 hPa Calm   4.7 mph /  7.6 km/h 54 % 0 in /  0.0 mm open2300-1.11 W/m2
03:12 37.6 °F /  3.1 °C 21.6 °F /  -5.8 °C 29.8 in /  1009.7 hPa WNW 12.2 mph /  19.6 km/h 15.8 mph /  25.4 km/h 52 % 0 in /  0.0 mm open2300-1.11 W/m2
04:12 39.4 °F /  4.1 °C 19.6 °F /  -6.9 °C 29.8 in /  1009.7 hPa NNW 4.0 mph /  6.4 km/h 7.2 mph /  11.6 km/h 45 % 0 in /  0.0 mm open2300-1.11 W/m2
05:12 39.7 °F /  4.3 °C 18.9 °F /  -7.3 °C 29.8 in /  1009.7 hPa WNW 6.1 mph /  9.8 km/h 18.0 mph /  29 km/h 43 % 0 in /  0.0 mm open2300-1.11 W/m2
06:12 39.4 °F /  4.1 °C 18.7 °F /  -7.4 °C 29.8 in /  1010.0 hPa NNW 1.4 mph /  2.3 km/h 3.2 mph /  5.1 km/h 43 % 0 in /  0.0 mm open2300-1.11 W/m2
07:12 38.8 °F /  3.8 °C 18.1 °F /  -7.7 °C 29.8 in /  1010.0 hPa NW 4.3 mph /  6.9 km/h 4.3 mph /  6.9 km/h 43 % 0 in /  0.0 mm open2300-1.11 W/m2
08:12 37.6 °F /  3.1 °C 18 °F /  -7.8 °C 29.8 in /  1010.7 hPa North 1.4 mph /  2.3 km/h 4.0 mph /  6.4 km/h 45 % 0 in /  0.0 mm open2300-1.11 W/m2
09:12 41.5 °F /  5.3 °C 19.9 °F /  -6.7 °C 29.9 in /  1011.1 hPa Calm   3.5 mph /  5.6 km/h 42 % 0 in /  0.0 mm open2300-1.11 W/m2
10:12 42.1 °F /  5.6 °C 19.6 °F /  -6.9 °C 29.8 in /  1010.7 hPa North 4.3 mph /  6.9 km/h 16.3 mph /  26.2 km/h 40 % 0 in /  0.0 mm open2300-1.11 W/m2
11:12 46.6 °F /  8.1 °C 24.1 °F /  -4.4 °C 29.9 in /  1011.1 hPa ESE 3.2 mph /  5.1 km/h 6.4 mph /  10.3 km/h 41 % 0 in /  0.0 mm open2300-1.11 W/m2
12:12 49.1 °F /  9.5 °C 25.2 °F /  -3.8 °C 29.8 in /  1010.7 hPa Calm   6.8 mph /  10.9 km/h 39 % 0 in /  0.0 mm open2300-1.11 W/m2
13:12 49.3 °F /  9.6 °C 25.3 °F /  -3.7 °C 29.8 in /  1009.7 hPa South 6.1 mph /  9.8 km/h 7.2 mph /  11.6 km/h 39 % 0 in /  0.0 mm open2300-1.11 W/m2
14:12 46.8 °F /  8.2 °C 24.3 °F /  -4.3 °C 29.8 in /  1009.7 hPa NW 25.3 mph /  40.7 km/h 25.3 mph /  40.7 km/h 41 % 0 in /  0.0 mm open2300-1.11 W/m2
15:12 47.3 °F /  8.5 °C 24.3 °F /  -4.3 °C 29.8 in /  1009.0 hPa North 1.8 mph /  2.9 km/h 8.7 mph /  14 km/h 40 % 0 in /  0.0 mm open2300-1.11 W/m2
16:12 46.9 °F /  8.3 °C 20.5 °F /  -6.4 °C 29.8 in /  1009.0 hPa West 9.0 mph /  14.5 km/h 9.3 mph /  15 km/h 35 % 0 in /  0.0 mm open2300-1.11 W/m2
17:12 46 °F /  7.8 °C 25.2 °F /  -3.8 °C 29.8 in /  1009.4 hPa Calm     44 % 0 in /  0.0 mm open2300-1.11 W/m2
18:12 45.3 °F /  7.4 °C 25.5 °F /  -3.6 °C 29.8 in /  1008.4 hPa Calm     46 % 0 in /  0.0 mm open2300-1.11 W/m2
19:12 45.1 °F /  7.3 °C 24.4 °F /  -4.2 °C 29.8 in /  1009.0 hPa NNW 1.4 mph /  2.3 km/h 2.1 mph /  3.4 km/h 44 % 0 in /  0.0 mm open2300-1.11 W/m2
20:12 43.7 °F /  6.5 °C 24.3 °F /  -4.3 °C 29.8 in /  1008.4 hPa Calm     46 % 0 in /  0.0 mm open2300-1.11 W/m2
21:12 43 °F /  6.1 °C 23 °F /  -5.0 °C 29.8 in /  1007.7 hPa Calm   1.4 mph /  2.3 km/h 45 % 0 in /  0.0 mm open2300-1.11 W/m2
22:12 42.6 °F /  5.9 °C 23.2 °F /  -4.9 °C 29.8 in /  1007.7 hPa WNW 14.0 mph /  22.5 km/h 14.0 mph /  22.5 km/h 46 % 0 in /  0.0 mm open2300-1.11 W/m2
23:12 41.5 °F /  5.3 °C 21.6 °F /  -5.8 °C 29.8 in /  1007.7 hPa NNW 7.2 mph /  11.6 km/h 12.2 mph /  19.6 km/h 45 % 0 in /  0.0 mm open2300-1.11 W/m2
Observations météo à CASSIS
WU-History script by Weather Underground - 1 mb